createdAt,value
2019-01-26T00:01:13.517Z,57.87
2019-01-26T00:03:48.374Z,64.93
2019-01-26T00:06:23.242Z,63.03
2019-01-26T00:08:58.422Z,65.40
2019-01-26T00:11:33.293Z,65.53
2019-01-26T00:14:08.477Z,60.60
2019-01-26T00:16:44.312Z,51.83
2019-01-26T00:19:19.162Z,48.20
2019-01-26T00:21:54.059Z,53.87
2019-01-26T00:24:28.969Z,47.57
2019-01-26T00:27:03.829Z,54.27
2019-01-26T00:29:39.008Z,50.63
2019-01-26T00:32:13.873Z,57.93
2019-01-26T00:34:48.992Z,63.27
2019-01-26T00:37:23.873Z,57.47
2019-01-26T00:39:59.629Z,60.33
2019-01-26T00:42:34.525Z,54.97
2019-01-26T00:45:10.924Z,48.53
2019-01-26T00:47:45.792Z,43.27
2019-01-26T00:50:20.623Z,47.53
2019-01-26T00:52:55.486Z,57.57
2019-01-26T00:55:30.346Z,52.57
2019-01-26T00:58:05.497Z,67.80
2019-01-26T01:00:40.645Z,55.90
2019-01-26T01:03:15.784Z,57.30
2019-01-26T01:05:51.022Z,52.00
2019-01-26T01:08:25.890Z,63.70
2019-01-26T01:11:01.091Z,57.17
2019-01-26T01:13:36.101Z,39.83
2019-01-26T01:16:11.056Z,63.40
2019-01-26T01:18:46.019Z,57.27
2019-01-26T01:21:20.951Z,53.87
2019-01-26T01:23:55.806Z,44.47
2019-01-26T01:26:30.946Z,44.33
2019-01-26T01:29:06.131Z,57.53
2019-01-26T01:31:41.045Z,59.87
2019-01-26T01:34:16.414Z,57.33
2019-01-26T01:36:51.526Z,55.50
2019-01-26T01:39:27.570Z,34.33
2019-01-26T01:42:02.440Z,57.23
2019-01-26T01:44:37.293Z,54.97
2019-01-26T01:47:12.523Z,53.00
2019-01-26T01:49:47.747Z,62.97
2019-01-26T01:52:22.623Z,52.10
2019-01-26T01:54:57.816Z,48.73
2019-01-26T01:57:32.885Z,57.00
2019-01-26T02:00:11.394Z,63.23
2019-01-26T02:02:46.271Z,53.97
2019-01-26T02:05:21.118Z,72.53
2019-01-26T02:07:56.287Z,54.07
2019-01-26T02:10:31.204Z,47.57
2019-01-26T02:13:06.069Z,55.80
2019-01-26T02:15:40.919Z,43.67
2019-01-26T02:18:16.110Z,60.67
2019-01-26T02:20:50.954Z,47.93
2019-01-26T02:23:25.834Z,67.93
2019-01-26T02:26:00.702Z,29.03
2019-01-26T02:28:35.933Z,65.13
2019-01-26T02:31:10.798Z,58.10
2019-01-26T02:33:46.106Z,59.87
2019-01-26T02:36:21.242Z,57.97
2019-01-26T02:38:56.491Z,58.40
2019-01-26T02:41:31.360Z,58.90
2019-01-26T02:44:07.165Z,53.80
2019-01-26T02:46:42.338Z,63.30
2019-01-26T02:49:17.569Z,56.53
2019-01-26T02:51:52.418Z,63.77
2019-01-26T02:54:28.230Z,59.13
2019-01-26T02:57:03.093Z,61.17
2019-01-26T02:59:37.943Z,60.30
2019-01-26T03:02:12.802Z,57.50
2019-01-26T03:04:47.988Z,69.57
2019-01-26T03:07:23.128Z,57.10
2019-01-26T03:09:58.249Z,68.57
2019-01-26T03:12:33.101Z,59.70
2019-01-26T03:15:11.126Z,66.93
2019-01-26T03:17:46.424Z,56.87
2019-01-26T03:20:21.563Z,65.03
2019-01-26T03:22:56.418Z,59.67
2019-01-26T03:25:31.252Z,82.10
2019-01-26T03:28:07.178Z,52.97
2019-01-26T03:30:42.041Z,57.13
2019-01-26T03:33:17.023Z,52.67
2019-01-26T03:35:52.180Z,42.97
2019-01-26T03:38:27.013Z,66.23
2019-01-26T03:41:01.877Z,56.80
2019-01-26T03:43:36.803Z,65.17
2019-01-26T03:46:11.836Z,70.13
2019-01-26T03:48:46.786Z,58.80
2019-01-26T03:51:21.650Z,64.47
2019-01-26T03:53:57.685Z,56.57
2019-01-26T03:56:32.543Z,59.27
2019-01-26T03:59:07.411Z,54.37
2019-01-26T04:01:43.605Z,65.07
2019-01-26T04:04:18.979Z,64.63
2019-01-26T04:06:53.828Z,49.53
2019-01-26T04:09:28.690Z,49.00
2019-01-26T04:12:03.571Z,58.60
2019-01-26T04:14:38.422Z,52.13
2019-01-26T04:17:13.426Z,54.23
2019-01-26T04:19:48.271Z,68.03
2019-01-26T04:22:23.146Z,61.90
2019-01-26T04:24:58.107Z,64.13
2019-01-26T04:27:33.289Z,77.20
2019-01-26T04:30:11.756Z,81.97
2019-01-26T04:32:46.619Z,73.90
2019-01-26T04:35:21.497Z,52.63
2019-01-26T04:37:57.353Z,60.57
2019-01-26T04:40:32.206Z,75.37
2019-01-26T04:43:07.314Z,97.53
2019-01-26T04:45:42.439Z,66.70
2019-01-26T04:48:17.273Z,61.43
2019-01-26T04:50:52.134Z,62.03
2019-01-26T04:53:27.101Z,52.53
2019-01-26T04:56:02.667Z,70.17
2019-01-26T04:58:37.514Z,93.83
2019-01-26T05:01:12.417Z,66.60
2019-01-26T05:03:47.328Z,70.17
2019-01-26T05:06:22.177Z,60.27
2019-01-26T05:08:57.357Z,62.13
2019-01-26T05:11:32.480Z,77.57
2019-01-26T05:14:07.619Z,87.17
2019-01-26T05:16:42.473Z,84.20
2019-01-26T05:19:17.692Z,71.83
2019-01-26T05:21:52.586Z,76.37
2019-01-26T05:24:28.385Z,76.73
2019-01-26T05:27:03.304Z,68.23
2019-01-26T05:29:38.449Z,80.33
2019-01-26T05:32:13.309Z,71.13
2019-01-26T05:34:48.164Z,77.07
2019-01-26T05:37:23.663Z,82.83
2019-01-26T05:39:58.494Z,66.40
2019-01-26T05:42:33.729Z,63.83
2019-01-26T05:45:11.245Z,70.47
2019-01-26T05:47:48.712Z,67.43
2019-01-26T05:50:25.659Z,60.83
2019-01-26T05:53:01.747Z,73.77
2019-01-26T05:55:36.595Z,93.40
2019-01-26T05:58:11.462Z,69.40
2019-01-26T06:00:46.433Z,63.33
2019-01-26T06:03:21.332Z,74.17
2019-01-26T06:05:56.168Z,61.77
2019-01-26T06:08:32.002Z,106.43
2019-01-26T06:11:07.391Z,73.03
2019-01-26T06:13:42.261Z,73.00
2019-01-26T06:16:17.514Z,69.93
2019-01-26T06:18:52.358Z,77.70
2019-01-26T06:21:27.234Z,80.77
2019-01-26T06:24:02.074Z,87.90
2019-01-26T06:26:37.305Z,85.37
2019-01-26T06:29:12.169Z,76.97
2019-01-26T06:31:48.295Z,79.53
2019-01-26T06:34:23.429Z,80.57
2019-01-26T06:36:58.301Z,75.13
2019-01-26T06:39:33.231Z,77.73
2019-01-26T06:42:08.549Z,87.60
2019-01-26T06:44:44.509Z,94.73
2019-01-26T06:47:20.282Z,71.63
2019-01-26T06:49:56.131Z,68.60
2019-01-26T06:52:30.977Z,78.67
2019-01-26T06:55:08.378Z,69.87
2019-01-26T06:57:43.227Z,85.10
2019-01-26T07:00:21.901Z,81.83
2019-01-26T07:02:57.268Z,78.40
2019-01-26T07:05:37.086Z,88.73
2019-01-26T07:08:13.577Z,86.13
2019-01-26T07:10:48.450Z,85.10
2019-01-26T07:13:24.337Z,72.60
2019-01-26T07:15:59.966Z,75.93
2019-01-26T07:18:34.832Z,76.50
2019-01-26T07:21:09.679Z,75.33
2019-01-26T07:23:45.508Z,74.90
2019-01-26T07:26:21.413Z,78.87
2019-01-26T07:28:56.559Z,67.03
2019-01-26T07:31:31.421Z,70.20
2019-01-26T07:34:06.284Z,63.27
2019-01-26T07:36:41.500Z,70.40
2019-01-26T07:39:16.734Z,72.90
2019-01-26T07:41:51.959Z,58.50
2019-01-26T07:44:27.112Z,78.33
2019-01-26T07:47:01.949Z,82.53
2019-01-26T07:49:37.166Z,78.80
2019-01-26T07:52:12.001Z,61.70
2019-01-26T07:54:49.395Z,92.97
2019-01-26T07:57:24.529Z,82.10
2019-01-26T07:59:59.835Z,63.83
2019-01-26T08:02:34.676Z,75.30
2019-01-26T08:05:10.841Z,67.10
2019-01-26T08:07:45.686Z,70.20
2019-01-26T08:10:22.579Z,62.97
2019-01-26T08:12:57.419Z,51.43
2019-01-26T08:15:33.257Z,75.23
2019-01-26T08:18:08.501Z,77.07
2019-01-26T08:20:43.733Z,62.63
2019-01-26T08:23:18.870Z,77.07
2019-01-26T08:25:54.933Z,57.83
2019-01-26T08:28:30.066Z,81.57
2019-01-26T08:31:04.917Z,60.83
2019-01-26T08:33:39.849Z,56.63
2019-01-26T08:36:15.587Z,67.07
2019-01-26T08:38:50.830Z,62.27
2019-01-26T08:41:25.747Z,53.67
2019-01-26T08:44:00.581Z,61.43
2019-01-26T08:46:35.445Z,60.57
2019-01-26T08:49:10.289Z,70.70
2019-01-26T08:51:45.479Z,63.37
2019-01-26T08:54:21.512Z,65.43
2019-01-26T08:56:56.456Z,65.17
2019-01-26T08:59:31.322Z,69.87
2019-01-26T09:02:14.065Z,68.63
2019-01-26T09:04:48.979Z,81.40
2019-01-26T09:07:24.591Z,67.30
2019-01-26T09:10:00.532Z,70.00
2019-01-26T09:12:36.333Z,81.70
2019-01-26T09:15:11.185Z,66.30
2019-01-26T09:17:46.386Z,82.17
2019-01-26T09:20:21.226Z,78.63
2019-01-26T09:22:56.082Z,67.83
2019-01-26T09:25:31.400Z,89.33
2019-01-26T09:28:06.401Z,71.20
2019-01-26T09:30:41.238Z,63.23
2019-01-26T09:33:17.427Z,81.20
2019-01-26T09:35:52.296Z,72.27
2019-01-26T09:38:27.491Z,87.73
2019-01-26T09:41:02.376Z,70.97
2019-01-26T09:43:37.205Z,76.07
2019-01-26T09:46:12.061Z,82.47
2019-01-26T09:48:47.189Z,71.83
2019-01-26T09:51:22.999Z,62.87
2019-01-26T09:53:57.917Z,66.40
2019-01-26T09:56:32.783Z,63.20
2019-01-26T09:59:07.987Z,59.17
2019-01-26T10:01:42.845Z,56.43
2019-01-26T10:04:17.684Z,64.73
2019-01-26T10:06:52.546Z,56.07
2019-01-26T10:09:27.399Z,50.90
2019-01-26T10:12:02.269Z,44.97
2019-01-26T10:14:37.119Z,62.83
2019-01-26T10:17:11.973Z,40.00
2019-01-26T10:19:48.777Z,45.10
2019-01-26T10:22:23.693Z,44.80
2019-01-26T10:24:58.814Z,43.43
2019-01-26T10:27:33.923Z,48.03
2019-01-26T10:30:18.009Z,41.50
2019-01-26T10:32:54.081Z,41.83
2019-01-26T10:35:36.918Z,37.60
2019-01-26T10:38:11.779Z,38.60
2019-01-26T10:40:51.823Z,36.80
2019-01-26T10:43:31.400Z,43.90
2019-01-26T10:46:06.245Z,43.23
2019-01-26T10:48:41.409Z,62.00
2019-01-26T10:51:16.260Z,35.53
2019-01-26T10:53:52.496Z,42.13
2019-01-26T10:56:27.363Z,40.20
2019-01-26T10:59:03.422Z,30.47
2019-01-26T11:01:38.355Z,33.27
2019-01-26T11:04:13.473Z,28.37
2019-01-26T11:06:50.279Z,36.87
2019-01-26T11:09:25.365Z,37.67
2019-01-26T11:12:00.497Z,29.47
2019-01-26T11:14:36.305Z,34.77
2019-01-26T11:17:11.529Z,32.23
2019-01-26T11:19:46.380Z,43.80
2019-01-26T11:22:21.307Z,42.33
2019-01-26T11:24:56.401Z,51.47
2019-01-26T11:27:31.538Z,38.77
2019-01-26T11:30:15.496Z,38.70
2019-01-26T11:32:51.365Z,34.77
2019-01-26T11:35:26.695Z,35.10
2019-01-26T11:38:01.626Z,34.33
2019-01-26T11:40:37.567Z,41.60
2019-01-26T11:43:12.437Z,32.47
2019-01-26T11:45:59.146Z,31.70
2019-01-26T11:48:35.657Z,28.43
2019-01-26T11:51:17.921Z,24.43
2019-01-26T11:53:52.777Z,22.23
2019-01-26T11:56:32.842Z,22.43
2019-01-26T11:59:07.729Z,33.17
2019-01-26T12:01:44.459Z,30.90
2019-01-26T12:04:21.357Z,27.63
2019-01-26T12:06:57.881Z,24.40
2019-01-26T12:09:32.983Z,37.43
2019-01-26T12:12:09.219Z,29.90
2019-01-26T12:14:44.679Z,28.73
2019-01-26T12:17:19.721Z,27.03
2019-01-26T12:19:54.827Z,30.07
2019-01-26T12:22:29.953Z,32.43
2019-01-26T12:25:06.699Z,18.90
2019-01-26T12:27:41.898Z,20.87
2019-01-26T12:30:17.009Z,19.67
2019-01-26T12:32:52.114Z,16.87
2019-01-26T12:35:27.301Z,20.80
2019-01-26T12:38:02.155Z,19.27
2019-01-26T12:40:37.020Z,23.53
2019-01-26T12:43:12.208Z,26.00
2019-01-26T12:45:47.065Z,17.63
2019-01-26T12:48:21.907Z,22.80
2019-01-26T12:50:57.109Z,19.63
2019-01-26T12:53:32.336Z,14.37
2019-01-26T12:56:08.457Z,13.27
2019-01-26T12:58:43.752Z,24.87
2019-01-26T13:01:18.565Z,31.20
2019-01-26T13:03:53.429Z,24.37
2019-01-26T13:06:28.322Z,34.20
2019-01-26T13:09:04.566Z,14.43
2019-01-26T13:11:41.001Z,22.50
2019-01-26T13:14:16.213Z,20.30
2019-01-26T13:16:51.756Z,16.73
2019-01-26T13:19:26.586Z,20.40
2019-01-26T13:22:01.833Z,21.17
2019-01-26T13:24:36.969Z,25.63
2019-01-26T13:27:12.198Z,32.30
2019-01-26T13:29:47.098Z,15.43
2019-01-26T13:32:22.285Z,14.20
2019-01-26T13:34:57.131Z,14.37
2019-01-26T13:37:32.285Z,16.17
2019-01-26T13:40:29.718Z,11.33
2019-01-26T13:43:04.625Z,22.47
2019-01-26T13:45:39.482Z,24.73
2019-01-26T13:48:14.364Z,22.70
2019-01-26T13:50:49.748Z,20.83
2019-01-26T13:53:26.610Z,17.13
2019-01-26T13:56:01.480Z,31.67
2019-01-26T13:58:37.593Z,26.03
2019-01-26T14:01:12.867Z,23.60
2019-01-26T14:03:47.710Z,30.93
2019-01-26T14:06:22.585Z,17.63
2019-01-26T14:08:57.696Z,18.43
2019-01-26T14:11:32.555Z,23.07
2019-01-26T14:14:07.528Z,20.30
2019-01-26T14:16:43.766Z,46.40
2019-01-26T14:19:19.580Z,17.50
2019-01-26T14:21:54.551Z,33.77
2019-01-26T14:24:29.609Z,34.47
2019-01-26T14:27:04.615Z,27.20
2019-01-26T14:29:39.807Z,24.60
2019-01-26T14:32:15.025Z,22.37
2019-01-26T14:34:50.799Z,41.70
2019-01-26T14:37:26.006Z,27.90
2019-01-26T14:40:01.256Z,25.07
2019-01-26T14:42:36.607Z,27.90
2019-01-26T14:45:14.075Z,29.97
2019-01-26T14:47:48.953Z,38.00
2019-01-26T14:50:26.074Z,24.97
2019-01-26T14:53:01.133Z,26.23
2019-01-26T14:55:36.031Z,30.87
2019-01-26T14:58:11.227Z,24.87
2019-01-26T15:00:46.395Z,23.43
2019-01-26T15:03:21.451Z,22.07
2019-01-26T15:05:56.285Z,25.17
2019-01-26T15:08:31.133Z,28.03
2019-01-26T15:11:05.981Z,25.70
2019-01-26T15:13:40.912Z,21.93
2019-01-26T15:16:15.742Z,22.70
2019-01-26T15:18:50.674Z,23.50
2019-01-26T15:21:25.986Z,26.03
2019-01-26T15:24:01.526Z,27.23
2019-01-26T15:26:37.546Z,24.60
2019-01-26T15:29:12.381Z,25.57
2019-01-26T15:31:47.231Z,22.93
2019-01-26T15:34:22.285Z,22.40
2019-01-26T15:36:57.421Z,18.77
2019-01-26T15:39:32.277Z,18.63
2019-01-26T15:42:07.389Z,12.57
2019-01-26T15:44:42.226Z,25.30
2019-01-26T15:47:17.340Z,16.80
2019-01-26T15:49:52.536Z,18.53
2019-01-26T15:52:28.603Z,18.30
2019-01-26T15:55:03.835Z,21.87
2019-01-26T15:57:39.640Z,26.50
2019-01-26T16:00:17.942Z,21.53
2019-01-26T16:02:52.805Z,19.67
2019-01-26T16:05:27.653Z,21.73
2019-01-26T16:08:02.504Z,23.67
2019-01-26T16:10:37.636Z,20.90
2019-01-26T16:13:13.453Z,20.80
2019-01-26T16:15:48.466Z,26.53
2019-01-26T16:18:25.898Z,34.20
2019-01-26T16:21:01.145Z,27.20
2019-01-26T16:23:36.295Z,27.67
2019-01-26T16:26:11.422Z,18.53
2019-01-26T16:28:46.297Z,25.57
2019-01-26T16:31:21.262Z,24.23
2019-01-26T16:33:56.141Z,23.27
2019-01-26T16:36:31.258Z,26.20
2019-01-26T16:39:08.825Z,21.60
2019-01-26T16:41:44.587Z,27.87
2019-01-26T16:44:19.429Z,25.57
2019-01-26T16:46:54.277Z,34.47
2019-01-26T16:49:29.109Z,27.27
2019-01-26T16:52:04.143Z,29.57
2019-01-26T16:54:38.970Z,25.37
2019-01-26T16:57:15.031Z,33.37
2019-01-26T16:59:49.869Z,31.80
2019-01-26T17:02:24.999Z,32.97
2019-01-26T17:04:59.832Z,42.60
2019-01-26T17:07:34.819Z,37.70
2019-01-26T17:10:15.834Z,34.77
2019-01-26T17:12:50.784Z,29.90
2019-01-26T17:15:25.901Z,30.77
2019-01-26T17:18:01.142Z,27.90
2019-01-26T17:20:39.979Z,24.53
2019-01-26T17:23:14.965Z,30.87
2019-01-26T17:25:50.758Z,28.30
2019-01-26T17:28:25.889Z,38.07
2019-01-26T17:31:01.026Z,26.83
2019-01-26T17:33:35.922Z,27.67
2019-01-26T17:36:11.101Z,29.70
2019-01-26T17:38:46.419Z,34.03
2019-01-26T17:41:21.251Z,34.97
2019-01-26T17:43:56.512Z,33.70
2019-01-26T17:46:32.705Z,34.00
2019-01-26T17:49:07.561Z,35.30
2019-01-26T17:51:42.398Z,38.53
2019-01-26T17:54:18.616Z,41.00
2019-01-26T17:56:54.385Z,31.83
2019-01-26T17:59:29.588Z,35.00
2019-01-26T18:02:04.427Z,40.57
2019-01-26T18:04:39.333Z,44.30
2019-01-26T18:07:14.174Z,37.23
2019-01-26T18:09:49.060Z,36.27
2019-01-26T18:12:24.253Z,27.07
2019-01-26T18:14:59.118Z,49.17
2019-01-26T18:17:34.221Z,32.90
2019-01-26T18:20:19.650Z,35.23
2019-01-26T18:22:54.846Z,29.67
2019-01-26T18:25:33.079Z,26.77
2019-01-26T18:28:08.088Z,30.77
2019-01-26T18:30:43.926Z,36.03
2019-01-26T18:33:19.082Z,34.03
2019-01-26T18:35:53.933Z,31.30
2019-01-26T18:38:29.157Z,46.80
2019-01-26T18:41:04.282Z,21.57
2019-01-26T18:43:39.133Z,37.97
2019-01-26T18:46:14.365Z,26.90
2019-01-26T18:48:49.501Z,27.73
2019-01-26T18:51:28.105Z,32.93
2019-01-26T18:54:02.939Z,23.63
2019-01-26T18:56:37.882Z,28.33
2019-01-26T18:59:12.725Z,25.03
2019-01-26T19:01:47.669Z,33.20
2019-01-26T19:04:22.873Z,31.30
2019-01-26T19:06:58.139Z,25.37
2019-01-26T19:09:35.717Z,55.90
2019-01-26T19:12:11.143Z,27.60
2019-01-26T19:14:46.317Z,29.80
2019-01-26T19:17:21.284Z,32.40
2019-01-26T19:19:56.457Z,28.97
2019-01-26T19:22:32.756Z,48.27
2019-01-26T19:25:11.056Z,38.47
2019-01-26T19:27:46.010Z,29.43
2019-01-26T19:30:23.173Z,42.87
2019-01-26T19:32:59.970Z,36.37
2019-01-26T19:35:35.069Z,48.53
2019-01-26T19:38:10.015Z,38.33
2019-01-26T19:40:46.334Z,44.17
2019-01-26T19:43:21.529Z,38.30
2019-01-26T19:45:56.623Z,41.47
2019-01-26T19:48:31.566Z,46.33
2019-01-26T19:51:10.068Z,31.70
2019-01-26T19:53:43.405Z,44.53
2019-01-26T19:56:19.793Z,36.23
2019-01-26T19:58:55.718Z,34.90
2019-01-26T20:01:31.237Z,34.27
2019-01-26T20:04:08.161Z,33.00
2019-01-26T20:06:43.010Z,38.57
2019-01-26T20:09:18.142Z,37.20
2019-01-26T20:11:53.369Z,29.77
2019-01-26T20:14:29.912Z,41.30
2019-01-26T20:17:04.735Z,36.43
2019-01-26T20:19:40.038Z,34.00
2019-01-26T20:22:15.250Z,35.50
2019-01-26T20:24:50.120Z,42.97
2019-01-26T20:27:25.292Z,34.03
2019-01-26T20:30:00.452Z,33.87
2019-01-26T20:32:37.442Z,45.93
2019-01-26T20:35:12.397Z,36.70
2019-01-26T20:37:47.553Z,32.60
2019-01-26T20:40:22.433Z,31.33
2019-01-26T20:42:57.656Z,37.60
2019-01-26T20:45:32.767Z,27.10
2019-01-26T20:48:08.678Z,36.80
2019-01-26T20:50:44.007Z,32.83
2019-01-26T20:53:19.154Z,30.13
2019-01-26T20:55:55.119Z,28.90
2019-01-26T20:58:30.750Z,42.97
2019-01-26T21:01:05.871Z,28.33
2019-01-26T21:03:40.738Z,25.90
2019-01-26T21:06:16.646Z,24.70
2019-01-26T21:08:51.898Z,35.00
2019-01-26T21:11:26.839Z,31.83
2019-01-26T21:14:01.777Z,26.37
2019-01-26T21:16:36.949Z,27.13
2019-01-26T21:19:12.080Z,32.00
2019-01-26T21:21:52.849Z,64.63
2019-01-26T21:24:28.055Z,35.10
2019-01-26T21:27:02.898Z,38.63
2019-01-26T21:29:38.097Z,25.10
2019-01-26T21:32:14.616Z,35.60
2019-01-26T21:34:50.663Z,33.67
2019-01-26T21:37:26.453Z,39.67
2019-01-26T21:40:01.286Z,35.80
2019-01-26T21:42:39.655Z,46.07
2019-01-26T21:45:15.900Z,33.60
2019-01-26T21:47:51.302Z,33.57
2019-01-26T21:50:31.766Z,34.37
2019-01-26T21:53:06.661Z,33.47
2019-01-26T21:55:41.841Z,35.20
2019-01-26T21:58:16.963Z,33.10
2019-01-26T22:00:51.895Z,28.67
2019-01-26T22:03:28.668Z,33.30
2019-01-26T22:06:07.944Z,34.40
2019-01-26T22:08:43.442Z,32.50
2019-01-26T22:11:18.373Z,35.50
2019-01-26T22:13:54.145Z,35.10
2019-01-26T22:16:30.239Z,27.20
2019-01-26T22:19:05.105Z,30.13
2019-01-26T22:21:45.871Z,34.20
2019-01-26T22:24:16.506Z,33.00
2019-01-26T22:26:51.335Z,31.53
2019-01-26T22:29:31.214Z,48.90
2019-01-26T22:32:03.152Z,27.40
2019-01-26T22:34:38.014Z,50.87
2019-01-26T22:37:14.744Z,37.97
2019-01-26T22:39:50.661Z,43.43
2019-01-26T22:42:27.115Z,42.07
2019-01-26T22:45:02.336Z,39.57
2019-01-26T22:47:40.184Z,47.97
2019-01-26T22:50:21.006Z,46.97
2019-01-26T22:52:57.162Z,53.23
2019-01-26T22:55:32.397Z,48.57
2019-01-26T22:58:07.644Z,38.83
2019-01-26T23:00:53.324Z,44.73
2019-01-26T23:03:52.690Z,36.30
2019-01-26T23:06:33.882Z,38.07
2019-01-26T23:09:12.837Z,51.23
2019-01-26T23:12:13.972Z,43.77
2019-01-26T23:15:08.994Z,39.73
2019-01-26T23:17:50.302Z,38.20
2019-01-26T23:20:31.522Z,36.13
2019-01-26T23:23:27.461Z,44.47
2019-01-26T23:26:15.938Z,42.40
2019-01-26T23:29:10.671Z,38.50
2019-01-26T23:31:46.762Z,48.23
2019-01-26T23:34:21.618Z,44.20
2019-01-26T23:36:56.756Z,46.37
2019-01-26T23:39:31.866Z,53.50
2019-01-26T23:42:06.726Z,49.70
2019-01-26T23:44:41.599Z,49.93
2019-01-26T23:47:16.721Z,46.87
2019-01-26T23:49:52.439Z,53.13
2019-01-26T23:52:27.586Z,48.83
2019-01-26T23:55:02.472Z,43.77
2019-01-26T23:57:38.395Z,48.87
